Terminal Aerodrome Forecast
Issued by NWS

Home | Current Version | Previous Version | Text Only | Print | Product List | Glossary On
Versions: 1 2 3 4 5 6 7 8 9 10 11 12 13 14 15 16 17 18 19 20 21
415
FTUS43 KGRR 222127 AAB
TAFMKG
TAF AMD
KMKG 222127Z 2221/2318 22012G22KT P6SM BKN070
     FM222230 19014G21KT P6SM VCTS BKN040CB
     FM230400 19015G22KT 6SM BR VCTS OVC025CB
     FM231200 29008KT P6SM OVC025
     FM231500 31009KT P6SM SKC=

USA.gov is the U.S. government's official web portal to all federal, state and local government web resources and services.